createdAt,value
2018-07-21T00:00:21.277Z,29.40
2018-07-21T00:02:49.622Z,29.40
2018-07-21T00:05:18.094Z,29.40
2018-07-21T00:07:46.491Z,29.40
2018-07-21T00:10:15.111Z,29.40
2018-07-21T00:12:43.446Z,29.30
2018-07-21T00:15:11.955Z,29.20
2018-07-21T00:17:40.525Z,29.20
2018-07-21T00:20:15.387Z,29.20
2018-07-21T00:22:43.729Z,29.20
2018-07-21T00:25:12.116Z,29.20
2018-07-21T00:27:40.491Z,29.10
2018-07-21T00:30:09.071Z,29.10
2018-07-21T00:32:37.485Z,29.00
2018-07-21T00:35:05.982Z,29.00
2018-07-21T00:37:34.321Z,29.00
2018-07-21T00:40:02.882Z,28.90
2018-07-21T00:42:31.313Z,29.00
2018-07-21T00:47:27.982Z,29.00
2018-07-21T00:49:56.384Z,28.90
2018-07-21T00:52:24.908Z,28.90
2018-07-21T00:54:53.403Z,28.90
2018-07-21T00:57:21.857Z,28.90
2018-07-21T00:59:50.130Z,28.90
2018-07-21T01:02:18.643Z,28.90
2018-07-21T01:04:47.319Z,28.80
2018-07-21T01:07:15.792Z,28.80
2018-07-21T01:09:44.172Z,28.70
2018-07-21T01:12:16.112Z,28.70
2018-07-21T01:14:44.394Z,28.60
2018-07-21T01:17:12.664Z,28.50
2018-07-21T01:19:41.080Z,28.50
2018-07-21T01:22:09.395Z,28.50
2018-07-21T01:24:37.725Z,28.50
2018-07-21T01:27:06.183Z,28.50
2018-07-21T01:29:34.524Z,28.50
2018-07-21T01:32:02.856Z,28.50
2018-07-21T01:34:31.684Z,28.50
2018-07-21T01:37:00.599Z,28.50
2018-07-21T01:39:28.906Z,28.50
2018-07-21T01:41:57.239Z,28.50
2018-07-21T01:44:25.563Z,28.50
2018-07-21T01:46:53.875Z,28.50
2018-07-21T01:49:22.169Z,28.40
2018-07-21T01:51:50.466Z,28.60
2018-07-21T01:54:18.763Z,28.50
2018-07-21T01:56:47.092Z,28.50
2018-07-21T01:59:15.350Z,28.50
2018-07-21T02:01:43.642Z,28.50
2018-07-21T02:04:11.954Z,28.50
2018-07-21T02:06:40.249Z,28.50
2018-07-21T02:09:09.975Z,28.40
2018-07-21T02:11:38.385Z,28.40
2018-07-21T02:14:06.743Z,28.40
2018-07-21T02:19:03.749Z,28.40
2018-07-21T02:21:32.279Z,28.40
2018-07-21T02:24:00.583Z,28.40
2018-07-21T02:26:28.987Z,28.30
2018-07-21T02:28:57.246Z,28.40
2018-07-21T02:31:25.611Z,28.30
2018-07-21T02:33:53.956Z,28.30
2018-07-21T02:36:22.364Z,28.30
2018-07-21T02:38:51.001Z,28.30
2018-07-21T02:41:19.328Z,28.30
2018-07-21T02:43:47.589Z,28.30
2018-07-21T02:46:15.880Z,28.30
2018-07-21T02:48:44.215Z,28.30
2018-07-21T02:51:12.543Z,28.30
2018-07-21T02:53:40.805Z,28.30
2018-07-21T02:56:09.135Z,28.30
2018-07-21T02:58:37.460Z,28.30
2018-07-21T03:01:05.837Z,28.20
2018-07-21T03:03:34.305Z,28.20
2018-07-21T03:06:02.735Z,28.20
2018-07-21T03:08:31.092Z,28.20
2018-07-21T03:10:59.589Z,28.20
2018-07-21T03:13:27.870Z,28.20
2018-07-21T03:15:56.222Z,28.10
2018-07-21T03:18:24.537Z,28.10
2018-07-21T03:20:52.911Z,28.10
2018-07-21T03:23:21.292Z,28.10
2018-07-21T03:25:49.605Z,28.00
2018-07-21T03:28:17.949Z,28.00
2018-07-21T03:30:46.312Z,28.00
2018-07-21T03:33:14.546Z,27.90
2018-07-21T03:35:42.903Z,27.90
2018-07-21T03:38:11.187Z,27.90
2018-07-21T03:40:39.481Z,27.90
2018-07-21T03:43:14.283Z,27.90
2018-07-21T03:45:42.551Z,27.80
2018-07-21T03:48:10.890Z,27.80
2018-07-21T03:50:39.190Z,27.80
2018-07-21T03:53:07.467Z,27.80
2018-07-21T03:55:35.942Z,27.70
2018-07-21T03:58:04.305Z,27.70
2018-07-21T04:00:32.668Z,27.50
2018-07-21T04:03:01.017Z,27.40
2018-07-21T04:05:29.360Z,27.40
2018-07-21T04:07:57.712Z,27.30
2018-07-21T04:10:26.003Z,27.30
2018-07-21T04:12:54.842Z,27.30
2018-07-21T04:15:23.158Z,27.30
2018-07-21T04:17:51.451Z,27.30
2018-07-21T04:20:19.793Z,27.30
2018-07-21T04:22:48.099Z,27.30
2018-07-21T04:25:16.383Z,27.30
2018-07-21T04:27:44.710Z,27.20
2018-07-21T04:30:13.079Z,27.30
2018-07-21T04:32:41.392Z,27.30
2018-07-21T04:35:09.902Z,27.40
2018-07-21T04:37:38.442Z,27.40
2018-07-21T04:40:06.949Z,27.40
2018-07-21T04:42:35.452Z,27.40
2018-07-21T04:45:03.997Z,27.50
2018-07-21T04:47:32.418Z,27.40
2018-07-21T04:50:00.895Z,27.50
2018-07-21T04:52:29.252Z,27.40
2018-07-21T04:54:57.554Z,27.40
2018-07-21T04:57:25.925Z,27.40
2018-07-21T04:59:54.271Z,27.50
2018-07-21T05:02:22.546Z,27.40
2018-07-21T05:04:50.921Z,27.50
2018-07-21T05:07:19.388Z,27.40
2018-07-21T05:09:47.726Z,27.50
2018-07-21T05:12:16.122Z,27.40
2018-07-21T05:14:44.469Z,27.40
2018-07-21T05:17:12.766Z,27.30
2018-07-21T05:19:41.229Z,27.30
2018-07-21T05:22:09.547Z,27.30
2018-07-21T05:24:37.906Z,27.30
2018-07-21T05:27:06.519Z,27.40
2018-07-21T05:29:34.958Z,27.40
2018-07-21T05:32:03.333Z,27.40
2018-07-21T05:34:31.955Z,27.40
2018-07-21T05:37:00.294Z,27.40
2018-07-21T05:39:28.619Z,27.40
2018-07-21T05:41:57.037Z,27.50
2018-07-21T05:44:25.447Z,27.50
2018-07-21T05:46:53.799Z,27.50
2018-07-21T05:49:22.095Z,27.50
2018-07-21T05:51:50.383Z,27.60
2018-07-21T05:54:18.746Z,27.60
2018-07-21T05:56:47.090Z,27.60
2018-07-21T05:59:15.388Z,27.70
2018-07-21T06:01:43.933Z,27.70
2018-07-21T06:04:12.261Z,27.80
2018-07-21T06:06:40.567Z,27.80
2018-07-21T06:09:10.391Z,27.80
2018-07-21T06:11:38.898Z,27.80
2018-07-21T06:14:07.335Z,27.90
2018-07-21T06:16:35.902Z,27.90
2018-07-21T06:19:04.447Z,27.90
2018-07-21T06:21:32.763Z,27.90
2018-07-21T06:24:01.406Z,27.90
2018-07-21T06:26:30.174Z,27.90
2018-07-21T06:31:26.551Z,27.90
2018-07-21T06:33:54.881Z,27.90
2018-07-21T06:36:23.643Z,27.90
2018-07-21T06:38:51.982Z,27.90
2018-07-21T06:41:20.325Z,27.90
2018-07-21T06:43:48.654Z,28.00
2018-07-21T06:46:17.106Z,28.00
2018-07-21T06:48:45.482Z,28.00
2018-07-21T06:51:13.787Z,28.00
2018-07-21T06:53:42.155Z,28.10
2018-07-21T06:58:38.710Z,28.20
2018-07-21T07:01:07.399Z,28.20
2018-07-21T07:03:35.879Z,28.20
2018-07-21T07:06:04.301Z,28.20
2018-07-21T07:08:32.684Z,28.20
2018-07-21T07:11:01.455Z,28.20
2018-07-21T07:13:29.804Z,28.20
2018-07-21T07:15:58.248Z,28.30
2018-07-21T07:18:26.802Z,28.30
2018-07-21T07:20:55.116Z,28.40
2018-07-21T07:23:23.427Z,28.50
2018-07-21T07:25:51.834Z,28.50
2018-07-21T07:28:20.219Z,28.60
2018-07-21T07:30:50.654Z,28.60
2018-07-21T07:33:18.964Z,28.60
2018-07-21T07:35:47.323Z,28.60
2018-07-21T07:38:15.657Z,28.60
2018-07-21T07:40:44.032Z,28.60
2018-07-21T07:43:12.459Z,28.60
2018-07-21T07:50:37.193Z,28.60
2018-07-21T07:53:05.786Z,28.60
2018-07-21T07:55:34.510Z,28.70
2018-07-21T07:58:04.367Z,28.70
2018-07-21T08:00:33.183Z,28.80
2018-07-21T08:03:02.443Z,28.80
2018-07-21T08:05:31.167Z,28.80
2018-07-21T08:07:59.555Z,28.80
2018-07-21T08:10:28.155Z,28.80
2018-07-21T08:12:56.525Z,28.70
2018-07-21T08:15:24.897Z,28.70
2018-07-21T08:17:53.247Z,28.70
2018-07-21T08:20:21.775Z,28.70
2018-07-21T08:22:50.272Z,28.60
2018-07-21T08:25:18.624Z,28.50
2018-07-21T08:27:46.914Z,28.50
2018-07-21T08:30:15.288Z,28.50
2018-07-21T08:32:44.017Z,28.50
2018-07-21T08:35:12.411Z,28.60
2018-07-21T08:37:40.899Z,28.60
2018-07-21T08:40:16.011Z,28.60
2018-07-21T08:42:44.431Z,28.60
2018-07-21T08:45:12.840Z,28.70
2018-07-21T08:47:41.249Z,28.70
2018-07-21T08:50:09.594Z,28.60
2018-07-21T08:52:37.918Z,28.60
2018-07-21T08:55:06.400Z,28.60
2018-07-21T08:57:34.929Z,28.50
2018-07-21T09:00:03.460Z,28.40
2018-07-21T09:02:31.928Z,28.40
2018-07-21T09:05:01.543Z,28.40
2018-07-21T09:07:29.932Z,28.40
2018-07-21T09:09:58.290Z,28.30
2018-07-21T09:12:26.642Z,28.30
2018-07-21T09:14:55.332Z,28.20
2018-07-21T09:17:23.663Z,28.20
2018-07-21T09:19:52.541Z,28.20
2018-07-21T09:22:20.909Z,28.10
2018-07-21T09:24:49.639Z,28.10
2018-07-21T09:27:17.946Z,28.00
2018-07-21T09:29:46.278Z,28.00
2018-07-21T09:32:14.874Z,28.00
2018-07-21T09:34:43.938Z,28.00
2018-07-21T09:39:47.049Z,27.90
2018-07-21T09:42:15.430Z,27.90
2018-07-21T09:44:43.748Z,27.90
2018-07-21T09:47:12.097Z,27.80
2018-07-21T09:49:40.681Z,27.80
2018-07-21T09:52:09.092Z,27.80
2018-07-21T09:54:37.633Z,27.80
2018-07-21T09:57:06.055Z,27.80
2018-07-21T09:59:34.469Z,27.80
2018-07-21T10:02:03.398Z,27.80
2018-07-21T10:04:32.041Z,27.70
2018-07-21T10:07:00.628Z,27.60
2018-07-21T10:09:29.272Z,27.60
2018-07-21T10:11:57.807Z,27.60
2018-07-21T10:14:26.341Z,27.60
2018-07-21T10:16:54.953Z,27.60
2018-07-21T10:19:23.435Z,27.60
2018-07-21T10:21:51.928Z,27.50
2018-07-21T10:24:25.847Z,27.50
2018-07-21T10:27:15.187Z,27.40
2018-07-21T10:29:44.059Z,27.30
2018-07-21T10:32:12.896Z,27.30
2018-07-21T10:34:42.890Z,27.30
2018-07-21T10:37:11.259Z,27.30
2018-07-21T10:39:39.808Z,27.40
2018-07-21T10:42:08.855Z,27.30
2018-07-21T10:44:37.154Z,27.20
2018-07-21T10:47:05.522Z,27.20
2018-07-21T10:49:33.991Z,27.20
2018-07-21T10:52:02.318Z,27.30
2018-07-21T10:54:30.925Z,27.30
2018-07-21T10:56:59.261Z,27.30
2018-07-21T10:59:27.525Z,27.30
2018-07-21T11:01:55.834Z,27.30
2018-07-21T11:04:24.376Z,27.40
2018-07-21T11:09:20.796Z,27.40
2018-07-21T11:11:49.231Z,27.40
2018-07-21T11:14:17.808Z,27.40
2018-07-21T11:16:46.125Z,27.40
2018-07-21T11:19:14.671Z,27.40
2018-07-21T11:21:43.056Z,27.40
2018-07-21T11:24:11.387Z,27.40
2018-07-21T11:26:39.816Z,27.40
2018-07-21T11:29:08.199Z,27.50
2018-07-21T11:31:36.660Z,27.60
2018-07-21T11:34:04.975Z,27.60
2018-07-21T11:36:33.686Z,27.60
2018-07-21T11:39:01.984Z,27.60
2018-07-21T11:41:30.311Z,27.70
2018-07-21T11:43:58.651Z,27.70
2018-07-21T11:46:27.077Z,27.70
2018-07-21T11:51:23.648Z,27.60
2018-07-21T11:53:52.046Z,27.60
2018-07-21T11:56:20.570Z,27.50
2018-07-21T11:58:48.855Z,27.50
2018-07-21T12:01:17.451Z,27.50
2018-07-21T12:03:45.946Z,27.50
2018-07-21T12:06:14.237Z,27.50
2018-07-21T12:08:42.561Z,27.50
2018-07-21T12:11:10.834Z,27.60
2018-07-21T12:13:39.243Z,27.50
2018-07-21T12:16:07.686Z,27.50
2018-07-21T12:18:36.097Z,27.50
2018-07-21T12:21:04.414Z,27.50
2018-07-21T12:23:32.855Z,27.50
2018-07-21T12:26:01.173Z,27.60
2018-07-21T12:28:29.790Z,27.60
2018-07-21T12:30:58.214Z,27.70
2018-07-21T12:33:26.539Z,27.70
2018-07-21T12:35:54.994Z,27.80
2018-07-21T12:38:23.373Z,27.90
2018-07-21T12:40:51.729Z,28.00
2018-07-21T12:43:20.277Z,28.00
2018-07-21T12:45:48.691Z,28.10
2018-07-21T12:48:17.032Z,28.20
2018-07-21T12:50:45.443Z,28.20
2018-07-21T12:53:13.982Z,28.40
2018-07-21T12:55:42.559Z,28.50
2018-07-21T12:58:11.070Z,28.50
2018-07-21T13:00:39.517Z,28.70
2018-07-21T13:03:08.343Z,28.70
2018-07-21T13:05:36.767Z,28.80
2018-07-21T13:08:05.359Z,28.90
2018-07-21T13:13:01.968Z,29.10
2018-07-21T13:15:30.379Z,29.10
2018-07-21T13:17:58.798Z,29.20
2018-07-21T13:20:27.162Z,29.20
2018-07-21T13:22:55.502Z,29.30
2018-07-21T13:25:23.833Z,29.40
2018-07-21T13:27:52.192Z,29.50
2018-07-21T13:30:20.626Z,29.60
2018-07-21T13:32:49.019Z,29.60
2018-07-21T13:35:17.326Z,29.70
2018-07-21T13:37:45.711Z,29.70
2018-07-21T13:40:14.071Z,29.80
2018-07-21T13:42:42.407Z,29.80
2018-07-21T13:45:10.844Z,29.90
2018-07-21T13:47:39.259Z,29.90
2018-07-21T13:50:07.721Z,29.90
2018-07-21T13:52:36.129Z,29.90
2018-07-21T13:55:04.864Z,29.90
2018-07-21T13:57:33.414Z,29.90
2018-07-21T14:00:01.884Z,30.00
2018-07-21T14:02:30.184Z,30.10
2018-07-21T14:04:58.505Z,30.20
2018-07-21T14:07:27.281Z,30.20
2018-07-21T14:12:25.028Z,30.40
2018-07-21T14:14:54.715Z,30.50
2018-07-21T14:17:23.811Z,30.60
2018-07-21T14:19:53.095Z,30.60
2018-07-21T14:22:22.552Z,30.70
2018-07-21T14:24:51.959Z,30.70
2018-07-21T14:27:21.476Z,30.70
2018-07-21T14:29:51.328Z,30.70
2018-07-21T14:32:19.633Z,30.70
2018-07-21T14:34:48.467Z,30.70
2018-07-21T14:37:16.863Z,30.70
2018-07-21T14:39:45.212Z,30.70
2018-07-21T14:42:13.536Z,30.70
2018-07-21T14:44:42.062Z,30.80
2018-07-21T14:49:38.428Z,30.90
2018-07-21T14:52:06.797Z,30.90
2018-07-21T14:54:35.373Z,31.00
2018-07-21T14:59:31.959Z,31.00
2018-07-21T15:02:00.321Z,31.00
2018-07-21T15:04:28.861Z,31.00
2018-07-21T15:06:57.169Z,31.00
2018-07-21T15:09:25.470Z,31.00
2018-07-21T15:11:54.109Z,31.00
2018-07-21T15:14:22.449Z,31.00
2018-07-21T15:16:50.728Z,30.90
2018-07-21T15:19:19.051Z,30.90
2018-07-21T15:21:47.403Z,30.90
2018-07-21T15:24:15.765Z,30.90
2018-07-21T15:26:44.275Z,30.80
2018-07-21T15:29:13.700Z,30.70
2018-07-21T15:31:43.234Z,30.70
2018-07-21T15:34:11.767Z,30.60
2018-07-21T15:36:40.242Z,30.50
2018-07-21T15:39:13.378Z,30.50
2018-07-21T15:41:42.129Z,30.40
2018-07-21T15:44:10.685Z,30.40
2018-07-21T15:46:41.398Z,30.30
2018-07-21T15:49:09.848Z,30.20
2018-07-21T15:51:38.418Z,30.20
2018-07-21T15:54:09.230Z,30.10
2018-07-21T15:56:37.905Z,30.10
2018-07-21T15:59:06.636Z,30.00
2018-07-21T16:01:35.244Z,29.90
2018-07-21T16:04:03.960Z,29.90
2018-07-21T16:06:32.571Z,29.80
2018-07-21T16:09:01.308Z,29.70
2018-07-21T16:11:30.272Z,29.70
2018-07-21T16:13:58.619Z,29.70
2018-07-21T16:16:27.047Z,29.60
2018-07-21T16:18:55.512Z,29.60
2018-07-21T16:21:25.236Z,29.60
2018-07-21T16:23:53.571Z,29.50
2018-07-21T16:26:22.597Z,29.40
2018-07-21T16:28:51.446Z,29.40
2018-07-21T16:31:19.894Z,29.40
2018-07-21T16:33:48.410Z,29.40
2018-07-21T16:36:17.066Z,29.30
2018-07-21T16:38:45.911Z,29.30
2018-07-21T16:41:14.371Z,29.30
2018-07-21T16:43:42.803Z,29.20
2018-07-21T16:46:11.211Z,29.10
2018-07-21T16:48:39.746Z,29.10
2018-07-21T16:51:08.346Z,29.10
2018-07-21T16:53:36.783Z,29.00
2018-07-21T16:56:05.103Z,29.10
2018-07-21T17:01:01.824Z,29.00
2018-07-21T17:03:30.129Z,29.00
2018-07-21T17:05:58.554Z,29.00
2018-07-21T17:08:26.872Z,29.00
2018-07-21T17:10:55.364Z,29.00
2018-07-21T17:13:23.799Z,29.10
2018-07-21T17:15:52.260Z,29.10
2018-07-21T17:18:23.543Z,29.10
2018-07-21T17:20:52.812Z,29.10
2018-07-21T17:23:21.155Z,29.00
2018-07-21T17:25:49.549Z,29.10
2018-07-21T17:28:18.778Z,29.00
2018-07-21T17:30:47.048Z,29.00
2018-07-21T17:33:16.375Z,28.90
2018-07-21T17:35:45.208Z,28.80
2018-07-21T17:40:43.195Z,28.70
2018-07-21T17:43:11.560Z,28.80
2018-07-21T17:45:39.903Z,28.80
2018-07-21T17:48:09.869Z,28.70
2018-07-21T17:50:38.250Z,28.70
2018-07-21T17:53:06.675Z,28.70
2018-07-21T17:55:35.079Z,28.70
2018-07-21T17:58:03.654Z,28.70
2018-07-21T18:00:32.718Z,28.60
2018-07-21T18:03:01.084Z,28.60
2018-07-21T18:05:29.593Z,28.60
2018-07-21T18:09:01.160Z,28.50
2018-07-21T18:11:29.599Z,28.50
2018-07-21T18:13:58.255Z,28.50
2018-07-21T18:16:26.952Z,28.50
2018-07-21T18:18:55.371Z,28.40
2018-07-21T18:21:23.735Z,28.40
2018-07-21T18:23:52.848Z,28.40
2018-07-21T18:26:21.621Z,28.40
2018-07-21T18:28:49.996Z,28.30
2018-07-21T18:31:18.347Z,28.30
2018-07-21T18:36:15.091Z,28.20
2018-07-21T18:38:44.886Z,28.10
2018-07-21T18:41:13.259Z,28.10
2018-07-21T18:43:42.928Z,28.10
2018-07-21T18:46:11.234Z,28.10
2018-07-21T18:48:39.682Z,28.10
2018-07-21T18:51:08.203Z,28.10
2018-07-21T18:53:37.634Z,28.10
2018-07-21T18:56:06.317Z,28.10
2018-07-21T18:58:34.877Z,28.10
2018-07-21T19:02:07.736Z,28.00
2018-07-21T19:04:36.970Z,28.00
2018-07-21T19:07:05.642Z,27.90
2018-07-21T19:09:34.313Z,27.90
2018-07-21T19:12:08.072Z,27.90
2018-07-21T19:14:36.516Z,27.90
2018-07-21T19:17:04.927Z,27.90
2018-07-21T19:19:38.698Z,27.80
2018-07-21T19:22:09.483Z,27.80
2018-07-21T19:24:37.807Z,27.80
2018-07-21T19:27:11.799Z,27.80
2018-07-21T19:29:40.287Z,27.80
2018-07-21T19:32:14.183Z,27.80
2018-07-21T19:37:14.913Z,27.80
2018-07-21T19:39:43.557Z,27.80
2018-07-21T19:42:12.019Z,27.90
2018-07-21T19:44:40.375Z,27.90
2018-07-21T19:47:08.817Z,28.00
2018-07-21T19:49:39.623Z,28.00
2018-07-21T19:52:08.070Z,28.00
2018-07-21T19:54:36.460Z,28.10
2018-07-21T19:57:04.823Z,28.10
2018-07-21T19:59:33.154Z,28.10
2018-07-21T20:02:01.871Z,28.10
2018-07-21T20:06:58.769Z,28.20
2018-07-21T20:09:27.779Z,28.10
2018-07-21T20:11:56.840Z,28.10
2018-07-21T20:14:25.433Z,28.10
2018-07-21T20:16:53.967Z,28.10
2018-07-21T20:19:22.275Z,28.10
2018-07-21T20:21:50.665Z,28.00
2018-07-21T20:24:19.140Z,28.00
2018-07-21T20:26:47.467Z,27.90
2018-07-21T20:29:16.832Z,27.90
2018-07-21T20:31:45.965Z,27.80
2018-07-21T20:34:15.289Z,27.80
2018-07-21T20:36:44.786Z,27.80
2018-07-21T20:39:13.817Z,27.80
2018-07-21T20:41:44.262Z,27.80
2018-07-21T20:44:13.146Z,27.80
2018-07-21T20:46:41.568Z,27.70
2018-07-21T20:49:09.956Z,27.70
2018-07-21T20:51:38.523Z,27.70
2018-07-21T20:54:07.099Z,27.60
2018-07-21T20:56:35.415Z,27.60
2018-07-21T21:01:31.799Z,27.50
2018-07-21T21:04:00.189Z,27.50
2018-07-21T21:06:28.697Z,27.50
2018-07-21T21:08:57.132Z,27.40
2018-07-21T21:11:25.479Z,27.40
2018-07-21T21:13:53.830Z,27.30
2018-07-21T21:16:22.355Z,27.30
2018-07-21T21:18:50.757Z,27.20
2018-07-21T21:21:19.143Z,27.20
2018-07-21T21:23:47.730Z,27.10
2018-07-21T21:26:16.274Z,27.10
2018-07-21T21:28:44.699Z,27.00
2018-07-21T21:31:13.126Z,27.00
2018-07-21T21:33:41.628Z,27.00
2018-07-21T21:36:10.060Z,26.90
2018-07-21T21:38:38.418Z,26.90
2018-07-21T21:41:06.883Z,26.80
2018-07-21T21:43:35.456Z,26.80
2018-07-21T21:46:03.962Z,26.70
2018-07-21T21:51:00.512Z,26.70
2018-07-21T21:53:28.981Z,26.60
2018-07-21T21:55:57.423Z,26.60
2018-07-21T21:58:25.778Z,26.60
2018-07-21T22:00:59.935Z,26.60
2018-07-21T22:03:30.383Z,26.60
2018-07-21T22:05:59.451Z,26.60
2018-07-21T22:08:28.083Z,26.60
2018-07-21T22:10:56.480Z,26.60
2018-07-21T22:13:25.363Z,26.60
2018-07-21T22:15:53.679Z,26.60
2018-07-21T22:18:22.175Z,26.50
2018-07-21T22:20:50.543Z,26.50
2018-07-21T22:23:18.912Z,26.50
2018-07-21T22:25:47.236Z,26.40
2018-07-21T22:28:15.665Z,26.40
2018-07-21T22:30:43.961Z,26.40
2018-07-21T22:33:12.382Z,26.40
2018-07-21T22:35:40.995Z,26.40
2018-07-21T22:38:09.401Z,26.40
2018-07-21T22:40:37.718Z,26.30
2018-07-21T22:43:05.989Z,26.30
2018-07-21T22:45:34.328Z,26.30
2018-07-21T22:48:02.631Z,26.30
2018-07-21T22:50:30.907Z,26.30
2018-07-21T22:52:59.315Z,26.20
2018-07-21T22:55:27.639Z,26.20
2018-07-21T22:57:55.943Z,26.20
2018-07-21T23:00:24.266Z,26.20
2018-07-21T23:02:52.523Z,26.20
2018-07-21T23:05:20.820Z,26.20
2018-07-21T23:07:49.132Z,26.20
2018-07-21T23:10:17.498Z,26.10
2018-07-21T23:12:45.846Z,26.10
2018-07-21T23:15:14.316Z,26.10
2018-07-21T23:17:42.682Z,26.10
2018-07-21T23:20:11.340Z,26.10
2018-07-21T23:22:39.716Z,26.00
2018-07-21T23:25:08.028Z,26.00
2018-07-21T23:27:36.615Z,26.00
2018-07-21T23:30:05.507Z,25.90
2018-07-21T23:32:33.875Z,25.90
2018-07-21T23:35:02.283Z,25.80
2018-07-21T23:37:30.944Z,25.80
2018-07-21T23:39:59.477Z,25.80
2018-07-21T23:42:27.795Z,25.80
2018-07-21T23:44:56.250Z,25.80
2018-07-21T23:47:24.723Z,25.70
2018-07-21T23:49:53.087Z,25.70
2018-07-21T23:52:23.251Z,25.70
2018-07-21T23:54:51.922Z,25.70
2018-07-21T23:57:20.391Z,25.60
2018-07-21T23:59:48.695Z,25.60
